Earl Gonsoulin — WDC3306 — position and weather

sailwx.info

Track history (hours):
 
Tides and Currents Weather Stations Pressure Air Temp Water Temp Dewpoint Dewpoint Depression Visibility Wind Speed Wind Dir Waves Ship Positions

Earl Gonsoulin

Owner: LeBeouf Bros. Towing, L.L.C., Houma, LA. More information available from US FCC via Universal Licensing System and Coast Guard Vessel Documentation Center.

Last reported at 2016-Jul-23 15:28 UTC. Time now 2016-Jul-25 15:54 UTC.
Position N 29°47' W 095°04'.

Length 21 m; draft 3 m.

Type: Tug. MMSI: 367005550.

Date/timePositionNaut miles runAvg speedWind from/ knotsBaromVisibWave heightAir tempDewpointWater temp
2016-Jul-23 15:28N 29°47' W 095°04'4 3.9
2016-Jul-23 14:33N 29°44' W 095°02'7 6.6
2016-Jul-23 13:33N 29°39' W 094°58'19 4.3
2016-Jul-23 09:06N 29°28' W 094°40'56 4.7
2016-Jul-22 21:20N 29°59' W 093°47'4 4.7
2016-Jul-22 20:33N 30°02' W 093°44'4 3.8
2016-Jul-22 19:33N 30°04' W 093°40'5 5.0
2016-Jul-22 18:33N 30°04' W 093°35'5 4.9
2016-Jul-22 17:33N 30°04' W 093°29'5 4.9
2016-Jul-22 16:33N 30°04' W 093°23'3 3.4
2016-Jul-22 15:33N 30°05' W 093°20'5 4.9
2016-Jul-22 14:33N 30°10' W 093°19'5 4.6
2016-Jul-22 13:33N 30°13' W 093°16'1 0.6
2016-Jul-22 12:33N 30°14' W 093°15'0 0.0
2016-Jul-22 11:33N 30°14' W 093°15'0 0.0
2016-Jul-22 10:33N 30°14' W 093°15'0 0.0
2016-Jul-22 09:33N 30°14' W 093°15'0 0.0
2016-Jul-22 08:33N 30°14' W 093°15'0 0.0
2016-Jul-22 07:33N 30°14' W 093°15'0 0.0
2016-Jul-22 05:33N 30°14' W 093°15'0 0.0
2016-Jul-22 04:33N 30°14' W 093°15'0 0.0
2016-Jul-22 03:33N 30°14' W 093°15'0 0.0
2016-Jul-22 02:33N 30°14' W 093°15'0 0.0
2016-Jul-22 01:33N 30°14' W 093°15'0 0.0
2016-Jul-22 00:33N 30°14' W 093°15'0 0.0
2016-Jul-21 23:33N 30°14' W 093°15'0 0.0
2016-Jul-21 22:33N 30°14' W 093°15'0 0.0
2016-Jul-21 21:33N 30°14' W 093°15'0 0.0
2016-Jul-21 20:33N 30°14' W 093°15'0 0.0
2016-Jul-21 19:33N 30°14' W 093°15'0 0.0
2016-Jul-21 18:33N 30°14' W 093°15'0 0.0
2016-Jul-21 17:33N 30°14' W 093°15'0 0.0
2016-Jul-21 16:33N 30°14' W 093°15'0 0.1
2016-Jul-21 15:33N 30°14' W 093°15'6 6.2
2016-Jul-21 14:33N 30°09' W 093°20'3 3.0
2016-Jul-21 13:33N 30°06' W 093°18'0 0.0
2016-Jul-21 12:33N 30°06' W 093°18'0 0.0
2016-Jul-21 11:33N 30°06' W 093°18'2 1.6
2016-Jul-21 10:33N 30°05' W 093°20'4 4.4
2016-Jul-21 09:33N 30°04' W 093°24'6 6.2
2016-Jul-21 08:33N 30°04' W 093°32'6 6.0
2016-Jul-21 07:33N 30°04' W 093°38'6 5.1
2016-Jul-21 06:27N 30°01' W 093°44'11 5.7
2016-Jul-21 04:32N 29°54' W 093°54'8 5.5
2016-Jul-21 03:08N 29°48' W 093°60'49 5.0
2016-Jul-20 17:23N 29°26' W 094°50'7 7.9
2016-Jul-20 16:33N 29°32' W 094°54'8 7.8
2016-Jul-20 15:32N 29°39' W 094°58'7 6.7
2016-Jul-20 14:33N 29°44' W 095°03'3 2.9
2016-Jul-20 13:30N 29°47' W 095°05'0 0.0
2016-Jul-20 09:33N 29°47' W 095°05'0 0.0
2016-Jul-20 01:32N 29°46' W 095°05'5 0.2
2016-Jul-19 03:12N 29°45' W 095°11'3 5.0
2016-Jul-19 02:32N 29°44' W 095°07'3 2.9
2016-Jul-19 01:33N 29°47' W 095°05'1 0.6
2016-Jul-18 23:33N 29°47' W 095°04'0 0.0
2016-Jul-18 20:07N 29°47' W 095°04'1 1.0
2016-Jul-18 19:27N 29°47' W 095°04'1 0.1
2016-Jul-18 13:33N 29°47' W 095°04'3 3.0
2016-Jul-18 12:29N 29°44' W 095°03'6 6.0
2016-Jul-18 11:32N 29°40' W 094°59'4 3.7
2016-Jul-18 10:33N 29°37' W 095°00'1 1.1
2016-Jul-18 09:33N 29°37' W 095°01'0 0.0
2016-Jul-18 08:33N 29°37' W 095°01'0 0.0
2016-Jul-18 07:33N 29°37' W 095°01'0 0.0
2016-Jul-18 06:32N 29°37' W 095°01'0 0.0
2016-Jul-18 05:33N 29°37' W 095°01'0 0.0
2016-Jul-18 04:33N 29°37' W 095°01'0 0.0
2016-Jul-18 03:33N 29°37' W 095°01'0 0.0
2016-Jul-18 02:33N 29°37' W 095°01'0 0.0
2016-Jul-18 01:32N 29°37' W 095°01'0 0.0
2016-Jul-18 00:30N 29°37' W 095°01'0 0.0
2016-Jul-17 23:33N 29°37' W 095°01'0 0.0
2016-Jul-17 22:32N 29°37' W 095°01'0 0.0
2016-Jul-17 21:31N 29°37' W 095°01'0 0.0
2016-Jul-17 20:33N 29°37' W 095°01'0 0.0
2016-Jul-17 19:32N 29°37' W 095°01'0 0.0
2016-Jul-17 18:33N 29°37' W 095°01'0 0.0
2016-Jul-17 17:33N 29°37' W 095°01'0 0.1
2016-Jul-17 16:32N 29°37' W 095°01'0 0.1
2016-Jul-17 15:33N 29°37' W 095°01'0 0.0
2016-Jul-17 14:33N 29°37' W 095°01'0 0.0
2016-Jul-17 13:33N 29°37' W 095°01'0 0.0
2016-Jul-17 12:33N 29°37' W 095°01'0 0.0
2016-Jul-17 11:33N 29°37' W 095°01'0 0.0
2016-Jul-17 10:33N 29°37' W 095°01'0 0.0
2016-Jul-17 09:33N 29°37' W 095°01'0 0.0
2016-Jul-17 08:33N 29°37' W 095°01'0 0.0
2016-Jul-17 07:31N 29°37' W 095°01'0 0.0
2016-Jul-17 06:33N 29°37' W 095°01'0 0.0
2016-Jul-17 04:33N 29°37' W 095°01'0 0.0
2016-Jul-17 03:33N 29°37' W 095°01'0 0.0
2016-Jul-17 02:33N 29°37' W 095°01'0 0.0
2016-Jul-17 01:33N 29°37' W 095°01'0 0.0
2016-Jul-17 00:33N 29°37' W 095°01'0 0.0
2016-Jul-16 23:33N 29°37' W 095°01'0 0.0
2016-Jul-16 22:33N 29°37' W 095°01'0 0.0
2016-Jul-16 21:32N 29°37' W 095°01'0 0.0
2016-Jul-16 20:32N 29°37' W 095°01'0 0.0
2016-Jul-16 19:33N 29°37' W 095°01'0 0.3
2016-Jul-16 18:33N 29°37' W 095°01'4 3.7
2016-Jul-16 17:33N 29°40' W 094°59'8 6.9
2016-Jul-16 16:26N 29°46' W 095°04'2 1.6
2016-Jul-16 15:25N 29°47' W 095°04'2 1.0
2016-Jul-16 13:24N 29°46' W 095°06'0 0.0
2016-Jul-16 12:32N 29°46' W 095°06'0 0.0
2016-Jul-15 17:20N 29°46' W 095°06'0 0.0
2016-Jul-15 16:27N 29°46' W 095°06'0 0.0
2016-Jul-15 13:31N 29°46' W 095°06'0 0.0
2016-Jul-15 12:27N 29°46' W 095°06'0 0.0
2016-Jul-15 11:22N 29°46' W 095°06'0 0.0
2016-Jul-15 10:32N 29°46' W 095°06'0 0.0
2016-Jul-15 08:14N 29°46' W 095°06'2 2.5
2016-Jul-15 07:21N 29°47' W 095°04'2 1.9
2016-Jul-15 06:33N 29°46' W 095°05'2 0.1
2016-Jul-14 04:33N 29°47' W 095°04'0 0.0
2016-Jul-14 03:23N 29°47' W 095°04'2 2.9
2016-Jul-14 02:33N 29°46' W 095°06'0 0.0
2016-Jul-14 01:30N 29°46' W 095°06'0 0.0
2016-Jul-14 00:33N 29°46' W 095°06'0 0.0
2016-Jul-13 23:33N 29°46' W 095°06'0 0.0
2016-Jul-13 22:33N 29°46' W 095°06'0 0.0
2016-Jul-13 21:30N 29°46' W 095°06'0 0.0
2016-Jul-13 20:27N 29°46' W 095°06'  
Track history (hours):
 
Tides and Currents Weather Stations Pressure Air Temp Water Temp Dewpoint Dewpoint Depression Visibility Wind Speed Wind Dir Waves Ship Positions

Earl Gonsoulin

Owner: LeBeouf Bros. Towing, L.L.C., Houma, LA. More information available from US FCC via Universal Licensing System and Coast Guard Vessel Documentation Center.

Last reported at 2016-Jul-23 15:28 UTC. Time now 2016-Jul-25 15:54 UTC.
Position N 29°47' W 095°04'.

Length 21 m; draft 3 m.

Type: Tug. MMSI: 367005550.

Date/timePositionNaut miles runAvg speedWind from/ knotsBaromVisibWave heightAir tempDewpointWater temp
2016-Jul-23 15:28N 29°47' W 095°04'4 3.9
2016-Jul-23 14:33N 29°44' W 095°02'7 6.6
2016-Jul-23 13:33N 29°39' W 094°58'19 4.3
2016-Jul-23 09:06N 29°28' W 094°40'56 4.7
2016-Jul-22 21:20N 29°59' W 093°47'4 4.7
2016-Jul-22 20:33N 30°02' W 093°44'4 3.8
2016-Jul-22 19:33N 30°04' W 093°40'5 5.0
2016-Jul-22 18:33N 30°04' W 093°35'5 4.9
2016-Jul-22 17:33N 30°04' W 093°29'5 4.9
2016-Jul-22 16:33N 30°04' W 093°23'3 3.4
2016-Jul-22 15:33N 30°05' W 093°20'5 4.9
2016-Jul-22 14:33N 30°10' W 093°19'5 4.6
2016-Jul-22 13:33N 30°13' W 093°16'1 0.6
2016-Jul-22 12:33N 30°14' W 093°15'0 0.0
2016-Jul-22 11:33N 30°14' W 093°15'0 0.0
2016-Jul-22 10:33N 30°14' W 093°15'0 0.0
2016-Jul-22 09:33N 30°14' W 093°15'0 0.0
2016-Jul-22 08:33N 30°14' W 093°15'0 0.0
2016-Jul-22 07:33N 30°14' W 093°15'0 0.0
2016-Jul-22 05:33N 30°14' W 093°15'0 0.0
2016-Jul-22 04:33N 30°14' W 093°15'0 0.0
2016-Jul-22 03:33N 30°14' W 093°15'0 0.0
2016-Jul-22 02:33N 30°14' W 093°15'0 0.0
2016-Jul-22 01:33N 30°14' W 093°15'0 0.0
2016-Jul-22 00:33N 30°14' W 093°15'0 0.0
2016-Jul-21 23:33N 30°14' W 093°15'0 0.0
2016-Jul-21 22:33N 30°14' W 093°15'0 0.0
2016-Jul-21 21:33N 30°14' W 093°15'0 0.0
2016-Jul-21 20:33N 30°14' W 093°15'0 0.0
2016-Jul-21 19:33N 30°14' W 093°15'0 0.0
2016-Jul-21 18:33N 30°14' W 093°15'0 0.0
2016-Jul-21 17:33N 30°14' W 093°15'0 0.0
2016-Jul-21 16:33N 30°14' W 093°15'0 0.1
2016-Jul-21 15:33N 30°14' W 093°15'6 6.2
2016-Jul-21 14:33N 30°09' W 093°20'3 3.0
2016-Jul-21 13:33N 30°06' W 093°18'0 0.0
2016-Jul-21 12:33N 30°06' W 093°18'0 0.0
2016-Jul-21 11:33N 30°06' W 093°18'2 1.6
2016-Jul-21 10:33N 30°05' W 093°20'4 4.4
2016-Jul-21 09:33N 30°04' W 093°24'6 6.2
2016-Jul-21 08:33N 30°04' W 093°32'6 6.0
2016-Jul-21 07:33N 30°04' W 093°38'6 5.1
2016-Jul-21 06:27N 30°01' W 093°44'11 5.7
2016-Jul-21 04:32N 29°54' W 093°54'8 5.5
2016-Jul-21 03:08N 29°48' W 093°60'49 5.0
2016-Jul-20 17:23N 29°26' W 094°50'7 7.9
2016-Jul-20 16:33N 29°32' W 094°54'8 7.8
2016-Jul-20 15:32N 29°39' W 094°58'7 6.7
2016-Jul-20 14:33N 29°44' W 095°03'3 2.9
2016-Jul-20 13:30N 29°47' W 095°05'0 0.0
2016-Jul-20 09:33N 29°47' W 095°05'0 0.0
2016-Jul-20 01:32N 29°46' W 095°05'5 0.2
2016-Jul-19 03:12N 29°45' W 095°11'3 5.0
2016-Jul-19 02:32N 29°44' W 095°07'3 2.9
2016-Jul-19 01:33N 29°47' W 095°05'1 0.6
2016-Jul-18 23:33N 29°47' W 095°04'0 0.0
2016-Jul-18 20:07N 29°47' W 095°04'1 1.0
2016-Jul-18 19:27N 29°47' W 095°04'1 0.1
2016-Jul-18 13:33N 29°47' W 095°04'3 3.0
2016-Jul-18 12:29N 29°44' W 095°03'6 6.0
2016-Jul-18 11:32N 29°40' W 094°59'4 3.7
2016-Jul-18 10:33N 29°37' W 095°00'1 1.1
2016-Jul-18 09:33N 29°37' W 095°01'0 0.0
2016-Jul-18 08:33N 29°37' W 095°01'0 0.0
2016-Jul-18 07:33N 29°37' W 095°01'0 0.0
2016-Jul-18 06:32N 29°37' W 095°01'0 0.0
2016-Jul-18 05:33N 29°37' W 095°01'0 0.0
2016-Jul-18 04:33N 29°37' W 095°01'0 0.0
2016-Jul-18 03:33N 29°37' W 095°01'0 0.0
2016-Jul-18 02:33N 29°37' W 095°01'0 0.0
2016-Jul-18 01:32N 29°37' W 095°01'0 0.0
2016-Jul-18 00:30N 29°37' W 095°01'0 0.0
2016-Jul-17 23:33N 29°37' W 095°01'0 0.0
2016-Jul-17 22:32N 29°37' W 095°01'0 0.0
2016-Jul-17 21:31N 29°37' W 095°01'0 0.0
2016-Jul-17 20:33N 29°37' W 095°01'0 0.0
2016-Jul-17 19:32N 29°37' W 095°01'0 0.0
2016-Jul-17 18:33N 29°37' W 095°01'0 0.0
2016-Jul-17 17:33N 29°37' W 095°01'0 0.1
2016-Jul-17 16:32N 29°37' W 095°01'0 0.1
2016-Jul-17 15:33N 29°37' W 095°01'0 0.0
2016-Jul-17 14:33N 29°37' W 095°01'0 0.0
2016-Jul-17 13:33N 29°37' W 095°01'0 0.0
2016-Jul-17 12:33N 29°37' W 095°01'0 0.0
2016-Jul-17 11:33N 29°37' W 095°01'0 0.0
2016-Jul-17 10:33N 29°37' W 095°01'0 0.0
2016-Jul-17 09:33N 29°37' W 095°01'0 0.0
2016-Jul-17 08:33N 29°37' W 095°01'0 0.0
2016-Jul-17 07:31N 29°37' W 095°01'0 0.0
2016-Jul-17 06:33N 29°37' W 095°01'0 0.0
2016-Jul-17 04:33N 29°37' W 095°01'0 0.0
2016-Jul-17 03:33N 29°37' W 095°01'0 0.0
2016-Jul-17 02:33N 29°37' W 095°01'0 0.0
2016-Jul-17 01:33N 29°37' W 095°01'0 0.0
2016-Jul-17 00:33N 29°37' W 095°01'0 0.0
2016-Jul-16 23:33N 29°37' W 095°01'0 0.0
2016-Jul-16 22:33N 29°37' W 095°01'0 0.0
2016-Jul-16 21:32N 29°37' W 095°01'0 0.0
2016-Jul-16 20:32N 29°37' W 095°01'0 0.0
2016-Jul-16 19:33N 29°37' W 095°01'0 0.3
2016-Jul-16 18:33N 29°37' W 095°01'4 3.7
2016-Jul-16 17:33N 29°40' W 094°59'8 6.9
2016-Jul-16 16:26N 29°46' W 095°04'2 1.6
2016-Jul-16 15:25N 29°47' W 095°04'2 1.0
2016-Jul-16 13:24N 29°46' W 095°06'0 0.0
2016-Jul-16 12:32N 29°46' W 095°06'0 0.0
2016-Jul-15 17:20N 29°46' W 095°06'0 0.0
2016-Jul-15 16:27N 29°46' W 095°06'0 0.0
2016-Jul-15 13:31N 29°46' W 095°06'0 0.0
2016-Jul-15 12:27N 29°46' W 095°06'0 0.0
2016-Jul-15 11:22N 29°46' W 095°06'0 0.0
2016-Jul-15 10:32N 29°46' W 095°06'0 0.0
2016-Jul-15 08:14N 29°46' W 095°06'2 2.5
2016-Jul-15 07:21N 29°47' W 095°04'2 1.9
2016-Jul-15 06:33N 29°46' W 095°05'2 0.1
2016-Jul-14 04:33N 29°47' W 095°04'0 0.0
2016-Jul-14 03:23N 29°47' W 095°04'2 2.9
2016-Jul-14 02:33N 29°46' W 095°06'0 0.0
2016-Jul-14 01:30N 29°46' W 095°06'0 0.0
2016-Jul-14 00:33N 29°46' W 095°06'0 0.0
2016-Jul-13 23:33N 29°46' W 095°06'0 0.0
2016-Jul-13 22:33N 29°46' W 095°06'0 0.0
2016-Jul-13 21:30N 29°46' W 095°06'0 0.0
2016-Jul-13 20:27N 29°46' W 095°06'  

Dump ship's entire track history